Decoded Metar for KWST (WESTERLY in RI, USA) (IATA:WST) | Meteo·Mobile Aviation Weather
aviador You're here:

KWST Decoded Metar

WESTERLY in RI, USA
Report Time2019-06-27 07:53:00
UTC Time2019-06-27 08:01:47
Flight Rules lifr LIFR
Wind040° at 04 kt
W.Decomp.*RWY 07: 3.9 kt HW 1 kt LCW
RWY 14: 0.3 kt HW 4 kt LCW
Visibility402 m
Phenomena:Fog
Clouds:N/A
Ceiling100 ft
Temp18°C (ISA +3)
Dew Point18°C (100% RH)
QNH1018 hPa
Density Alt541 ft
Elevation69 ft
Report Wrong Elevation
Raw Report
METAR KWST 270753Z AUTO 04004KT 1/4SM FG VV001 18/18 A3007 RMK AO2
SLP182 T01830183=

Extra information for KWST:More info

Metar Taf Metar & Taf Last 4 Metars F.Rules Stats Wind Profile Meteogram Temp Stats Airport Information Weather charts Add Link Nearby VenuesMetar ALERT Operation Metar Decoded Social comments

AIRNAV info for KWST